createdAt,value
2023-03-23T15:59:59.191Z,70.24
2023-03-23T16:02:27.303Z,70.67
2023-03-23T16:04:55.252Z,70.80
2023-03-23T16:07:23.208Z,70.97
2023-03-23T16:09:51.516Z,70.63
2023-03-23T16:12:19.398Z,71.56
2023-03-23T16:14:47.273Z,72.60
2023-03-23T16:17:16.283Z,72.81
2023-03-23T16:19:44.153Z,72.60
2023-03-23T16:22:12.379Z,72.76
2023-03-23T16:24:40.351Z,73.03
2023-03-23T16:27:08.338Z,73.76
2023-03-23T16:32:08.473Z,73.57
2023-03-23T16:34:38.885Z,74.09
2023-03-23T16:37:07.178Z,73.93
2023-03-23T16:39:35.584Z,74.11
2023-03-23T16:42:03.749Z,74.18
2023-03-23T16:44:31.986Z,74.41
2023-03-23T16:47:00.358Z,74.33
2023-03-23T16:49:28.206Z,74.78
2023-03-23T16:51:56.143Z,74.65
2023-03-23T16:54:24.226Z,75.12
2023-03-23T16:56:52.220Z,74.33
2023-03-23T16:59:21.022Z,74.64
2023-03-23T17:01:49.361Z,74.51
2023-03-23T17:04:17.464Z,75.26
2023-03-23T17:06:46.257Z,75.11
2023-03-23T17:09:14.472Z,75.24
2023-03-23T17:11:43.197Z,75.49
2023-03-23T17:14:11.303Z,75.66
2023-03-23T17:16:40.446Z,75.07
2023-03-23T17:19:08.463Z,75.12
2023-03-23T17:21:36.357Z,75.58
2023-03-23T17:24:05.219Z,75.67
2023-03-23T17:26:33.036Z,75.40
2023-03-23T17:29:01.029Z,75.79
2023-03-23T17:33:58.008Z,76.17
2023-03-23T17:36:26.356Z,75.52
2023-03-23T17:38:54.449Z,76.20
2023-03-23T17:41:22.378Z,75.83
2023-03-23T17:43:50.474Z,75.93
2023-03-23T17:46:18.876Z,75.62
2023-03-23T17:48:47.953Z,75.95
2023-03-23T17:51:15.773Z,75.80
2023-03-23T17:53:43.785Z,76.12
2023-03-23T17:56:11.686Z,76.40
2023-03-23T17:58:39.618Z,76.07
2023-03-23T18:01:08.012Z,76.16
2023-03-23T18:03:35.922Z,75.34
2023-03-23T18:06:04.142Z,75.71
2023-03-23T18:08:32.124Z,75.57
2023-03-23T18:10:59.962Z,75.26
2023-03-23T18:13:28.150Z,74.87
2023-03-23T18:15:56.128Z,75.40
2023-03-23T18:18:24.106Z,75.11
2023-03-23T18:20:52.016Z,74.84
2023-03-23T18:23:20.190Z,74.67
2023-03-23T18:25:48.917Z,74.66
2023-03-23T18:28:17.440Z,74.68
2023-03-23T18:30:49.512Z,74.91
2023-03-23T18:33:19.031Z,75.07
2023-03-23T18:35:47.904Z,74.67
2023-03-23T18:38:16.412Z,74.83
2023-03-23T18:40:44.460Z,75.28
2023-03-23T18:43:12.343Z,75.41
2023-03-23T18:45:40.343Z,75.29
2023-03-23T18:48:09.772Z,74.98
2023-03-23T18:50:38.146Z,75.03
2023-03-23T18:53:06.529Z,74.63
2023-03-23T18:55:34.368Z,74.73
2023-03-23T18:58:02.969Z,74.75
2023-03-23T19:00:31.335Z,74.90
2023-03-23T19:03:00.263Z,74.98
2023-03-23T19:05:28.735Z,74.88
2023-03-23T19:07:56.851Z,74.97
2023-03-23T19:10:24.986Z,74.42
2023-03-23T19:12:52.902Z,74.62
2023-03-23T19:15:21.293Z,74.88
2023-03-23T19:17:55.803Z,74.71
2023-03-23T19:22:58.084Z,74.15
2023-03-23T19:25:27.414Z,74.50
2023-03-23T19:30:26.266Z,74.51
2023-03-23T19:32:54.583Z,74.22
2023-03-23T19:35:22.458Z,74.42
2023-03-23T19:37:51.371Z,73.82
2023-03-23T19:40:37.525Z,74.17
2023-03-23T19:43:08.646Z,74.17
2023-03-23T19:45:37.296Z,73.48
2023-03-23T19:48:05.865Z,73.67
2023-03-23T19:50:35.422Z,73.71
2023-03-23T19:53:03.462Z,73.37
2023-03-23T19:55:31.231Z,73.85
2023-03-23T19:58:00.340Z,73.48
2023-03-23T20:00:28.815Z,73.27
2023-03-23T20:02:57.197Z,73.22
2023-03-23T20:05:25.716Z,72.57
2023-03-23T20:07:53.754Z,73.46
2023-03-23T20:10:21.640Z,73.27
2023-03-23T20:12:50.555Z,73.10
2023-03-23T20:15:18.727Z,73.09
2023-03-23T20:17:46.677Z,72.93
2023-03-23T20:20:15.261Z,72.57
2023-03-23T20:22:43.351Z,72.46
2023-03-23T20:25:12.443Z,72.36
2023-03-23T20:27:40.450Z,72.86
2023-03-23T20:30:10.178Z,72.49
2023-03-23T20:32:40.888Z,72.40
2023-03-23T20:35:09.497Z,72.17
2023-03-23T20:37:38.856Z,72.34
2023-03-23T20:40:07.670Z,72.10
2023-03-23T20:42:35.505Z,71.79
2023-03-23T20:45:03.638Z,71.67
2023-03-23T20:47:32.065Z,71.62
2023-03-23T20:50:00.528Z,71.62
2023-03-23T20:52:28.459Z,71.77
2023-03-23T20:54:56.473Z,72.16
2023-03-23T20:57:24.653Z,72.05
2023-03-23T20:59:52.719Z,72.04
2023-03-23T21:02:21.503Z,71.46
2023-03-23T21:04:53.106Z,71.08
2023-03-23T21:07:24.167Z,71.77
2023-03-23T21:09:52.065Z,71.51
2023-03-23T21:12:20.115Z,71.85
2023-03-23T21:14:48.716Z,71.79
2023-03-23T21:17:16.669Z,71.30
2023-03-23T21:19:44.684Z,71.22
2023-03-23T21:22:15.066Z,71.59
2023-03-23T21:24:42.921Z,71.87
2023-03-23T21:27:10.985Z,71.55
2023-03-23T21:29:38.986Z,71.94
2023-03-23T21:32:08.859Z,71.39
2023-03-23T21:34:37.020Z,71.45
2023-03-23T21:37:04.920Z,71.41
2023-03-23T21:39:35.093Z,71.56
2023-03-23T21:42:04.538Z,71.36
2023-03-23T21:44:35.356Z,71.63
2023-03-23T21:47:03.250Z,71.33
2023-03-23T21:49:31.817Z,70.83
2023-03-23T21:52:00.612Z,71.09
2023-03-23T21:54:30.301Z,71.03
2023-03-23T21:56:59.087Z,71.25
2023-03-23T21:59:26.999Z,70.49
2023-03-23T22:01:55.093Z,71.04
2023-03-23T22:04:23.184Z,71.20
2023-03-23T22:06:51.332Z,70.85
2023-03-23T22:09:19.095Z,71.29
2023-03-23T22:11:46.898Z,71.12
2023-03-23T22:14:14.721Z,71.23
2023-03-23T22:16:43.047Z,71.04
2023-03-23T22:19:10.845Z,71.59
2023-03-23T22:21:39.322Z,72.00
2023-03-23T22:24:07.049Z,72.79
2023-03-23T22:26:34.824Z,72.69
2023-03-23T22:29:03.553Z,73.68
2023-03-23T22:31:32.724Z,73.35
2023-03-23T22:34:01.338Z,73.48
2023-03-23T22:36:29.067Z,73.99
2023-03-23T22:38:56.975Z,74.32
2023-03-23T22:41:25.617Z,74.90
2023-03-23T22:43:53.768Z,75.16
2023-03-23T22:46:22.062Z,74.89
2023-03-23T22:48:49.804Z,75.13
2023-03-23T22:51:17.641Z,75.56
2023-03-23T22:53:45.695Z,75.57
2023-03-23T22:56:13.410Z,76.14
2023-03-23T22:58:41.195Z,76.05
2023-03-23T23:01:08.972Z,76.25
2023-03-23T23:03:37.054Z,76.68
2023-03-23T23:06:06.135Z,76.38
2023-03-23T23:08:33.857Z,76.79
2023-03-23T23:11:01.565Z,77.61
2023-03-23T23:13:30.619Z,77.05
2023-03-23T23:15:59.495Z,77.88
2023-03-23T23:18:27.709Z,78.52
2023-03-23T23:20:55.595Z,78.61
2023-03-23T23:23:23.248Z,78.26
2023-03-23T23:25:50.895Z,78.61
2023-03-23T23:28:18.880Z,78.63
2023-03-23T23:30:47.373Z,78.81
2023-03-23T23:33:15.368Z,78.95
2023-03-23T23:35:43.046Z,78.90
2023-03-23T23:38:12.421Z,79.70
2023-03-23T23:40:40.852Z,79.70
2023-03-23T23:43:08.858Z,79.99
2023-03-23T23:45:36.840Z,79.53
2023-03-23T23:48:05.545Z,79.79
2023-03-23T23:50:33.319Z,80.30
2023-03-23T23:53:00.970Z,80.06
2023-03-23T23:55:29.205Z,80.04
2023-03-23T23:57:56.995Z,80.56
